createdAt,value
2016-09-08T00:00:09.063Z,955.67
2016-09-08T00:01:09.431Z,955.62
2016-09-08T00:02:09.056Z,955.69
2016-09-08T00:03:09.052Z,955.65
2016-09-08T00:04:09.057Z,955.63
2016-09-08T00:05:09.048Z,955.64
2016-09-08T00:06:09.148Z,955.63
2016-09-08T00:07:09.048Z,955.68
2016-09-08T00:08:09.112Z,955.71
2016-09-08T00:09:09.146Z,955.63
2016-09-08T00:10:09.031Z,955.68
2016-09-08T00:11:09.094Z,955.74
2016-09-08T00:12:09.025Z,955.7
2016-09-08T00:13:09.022Z,955.69
2016-09-08T00:14:09.136Z,955.69
2016-09-08T00:15:09.018Z,955.71
2016-09-08T00:16:09.014Z,955.68
2016-09-08T00:17:09.157Z,955.72
2016-09-08T00:18:09.003Z,955.71
2016-09-08T00:19:09.003Z,955.71
2016-09-08T00:20:09.056Z,955.71
2016-09-08T00:21:08.999Z,955.71
2016-09-08T00:22:09.155Z,955.7
2016-09-08T00:23:08.992Z,955.69
2016-09-08T00:24:08.984Z,955.69
2016-09-08T00:25:08.979Z,955.66
2016-09-08T00:26:08.980Z,955.68
2016-09-08T00:27:08.973Z,955.66
2016-09-08T00:28:09.098Z,955.65
2016-09-08T00:29:08.971Z,955.63
2016-09-08T00:30:08.968Z,955.68
2016-09-08T00:31:08.959Z,955.64
2016-09-08T00:32:08.956Z,955.66
2016-09-08T00:33:09.306Z,955.7
2016-09-08T00:34:08.948Z,955.72
2016-09-08T00:35:08.950Z,955.65
2016-09-08T00:36:08.942Z,955.67
2016-09-08T00:37:09.129Z,955.6
2016-09-08T00:38:08.933Z,955.63
2016-09-08T00:39:09.075Z,955.63
2016-09-08T00:40:08.935Z,955.61
2016-09-08T00:41:08.924Z,955.59
2016-09-08T00:42:09.242Z,955.6
2016-09-08T00:43:08.929Z,955.53
2016-09-08T00:44:09.009Z,955.56
2016-09-08T00:45:08.912Z,955.55
2016-09-08T00:46:08.907Z,955.5
2016-09-08T00:47:08.900Z,955.5
2016-09-08T00:48:09.010Z,955.48
2016-09-08T00:49:08.897Z,955.48
2016-09-08T00:50:08.887Z,955.49
2016-09-08T00:51:09.003Z,955.5
2016-09-08T00:52:08.881Z,955.47
2016-09-08T00:53:08.877Z,955.45
2016-09-08T00:54:09.443Z,955.44
2016-09-08T00:55:08.869Z,955.46
2016-09-08T00:56:08.933Z,955.4
2016-09-08T00:57:09.218Z,955.44
2016-09-08T00:58:08.859Z,955.44
2016-09-08T00:59:08.855Z,955.44
2016-09-08T01:00:08.943Z,955.41
2016-09-08T01:01:08.845Z,955.4
2016-09-08T01:02:09.020Z,955.38
2016-09-08T01:03:08.842Z,955.36
2016-09-08T01:04:08.833Z,955.34
2016-09-08T01:05:08.836Z,955.37
2016-09-08T01:06:08.827Z,955.36
2016-09-08T01:07:09.255Z,955.39
2016-09-08T01:08:08.822Z,955.38
2016-09-08T01:09:08.824Z,955.37
2016-09-08T01:10:09.211Z,955.38
2016-09-08T01:11:08.805Z,955.39
2016-09-08T01:12:09.008Z,955.36
2016-09-08T01:13:08.798Z,955.39
2016-09-08T01:14:08.903Z,955.37
2016-09-08T01:15:08.790Z,955.33
2016-09-08T01:16:08.784Z,955.35
2016-09-08T01:17:08.869Z,955.37
2016-09-08T01:18:08.779Z,955.4
2016-09-08T01:19:08.774Z,955.4
2016-09-08T01:20:08.896Z,955.38
2016-09-08T01:21:08.775Z,955.4
2016-09-08T01:22:08.762Z,955.41
2016-09-08T01:23:08.756Z,955.39
2016-09-08T01:24:08.750Z,955.38
2016-09-08T01:25:09.093Z,955.37
2016-09-08T01:26:08.749Z,955.4
2016-09-08T01:27:09.022Z,955.41
2016-09-08T01:28:08.736Z,955.41
2016-09-08T01:29:08.935Z,955.41
2016-09-08T01:30:08.726Z,955.42
2016-09-08T01:31:08.720Z,955.4
2016-09-08T01:32:08.883Z,955.39
2016-09-08T01:33:08.715Z,955.36
2016-09-08T01:34:08.708Z,955.36
2016-09-08T01:35:08.853Z,955.3
2016-09-08T01:36:08.705Z,955.29
2016-09-08T01:37:08.694Z,955.29
2016-09-08T01:38:09.027Z,955.3
2016-09-08T01:39:08.690Z,955.28
2016-09-08T01:40:08.683Z,955.28
2016-09-08T01:41:08.957Z,955.29
2016-09-08T01:42:09.006Z,955.32
2016-09-08T01:43:08.671Z,955.33
2016-09-08T01:44:08.732Z,955.33
2016-09-08T01:45:08.672Z,955.31
2016-09-08T01:46:08.657Z,955.31
2016-09-08T01:47:08.656Z,955.29
2016-09-08T01:48:08.648Z,955.27
2016-09-08T01:49:08.642Z,955.25
2016-09-08T01:50:08.639Z,955.27
2016-09-08T01:51:08.635Z,955.24
2016-09-08T01:52:08.629Z,955.27
2016-09-08T01:53:08.628Z,955.27
2016-09-08T01:54:08.627Z,955.24
2016-09-08T01:55:08.624Z,955.25
2016-09-08T01:56:08.617Z,955.23
2016-09-08T01:57:08.613Z,955.24
2016-09-08T01:58:08.606Z,955.26
2016-09-08T01:59:08.600Z,955.21
2016-09-08T02:00:08.595Z,955.2
2016-09-08T02:01:08.590Z,955.25
2016-09-08T02:02:08.585Z,955.24
2016-09-08T02:03:08.582Z,955.21
2016-09-08T02:04:08.576Z,955.24
2016-09-08T02:05:08.571Z,955.22
2016-09-08T02:06:08.717Z,955.18
2016-09-08T02:07:08.561Z,955.17
2016-09-08T02:08:08.643Z,955.2
2016-09-08T02:09:08.553Z,955.18
2016-09-08T02:10:08.888Z,955.19
2016-09-08T02:11:08.544Z,955.18
2016-09-08T02:12:08.538Z,955.16
2016-09-08T02:13:08.538Z,955.17
2016-09-08T02:14:08.533Z,955.1
2016-09-08T02:15:08.522Z,955.17
2016-09-08T02:16:08.519Z,955.16
2016-09-08T02:17:08.702Z,955.13
2016-09-08T02:18:08.507Z,955.15
2016-09-08T02:19:08.527Z,955.17
2016-09-08T02:20:08.518Z,955.17
2016-09-08T02:21:08.496Z,955.15
2016-09-08T02:22:08.489Z,955.13
2016-09-08T02:23:08.490Z,955.13
2016-09-08T02:24:08.482Z,955.08
2016-09-08T02:25:08.482Z,955.11
2016-09-08T02:26:08.473Z,955.05
2016-09-08T02:27:08.473Z,955.06
2016-09-08T02:28:08.466Z,955.05
2016-09-08T02:29:08.460Z,955.06
2016-09-08T02:30:08.458Z,955.07
2016-09-08T02:31:08.447Z,955.06
2016-09-08T02:32:08.442Z,955.06
2016-09-08T02:33:08.454Z,955.09
2016-09-08T02:34:08.445Z,955.03
2016-09-08T02:35:08.433Z,954.99
2016-09-08T02:36:08.448Z,955.03
2016-09-08T02:37:08.446Z,955
2016-09-08T02:38:08.425Z,954.98
2016-09-08T02:39:08.409Z,954.95
2016-09-08T02:40:08.412Z,954.93
2016-09-08T02:41:08.400Z,954.94
2016-09-08T02:42:08.394Z,954.93
2016-09-08T02:43:08.401Z,954.9
2016-09-08T02:44:08.386Z,954.9
2016-09-08T02:45:08.379Z,954.9
2016-09-08T02:46:08.376Z,954.9
2016-09-08T02:47:08.376Z,954.85
2016-09-08T02:48:08.364Z,954.84
2016-09-08T02:49:08.361Z,954.85
2016-09-08T02:50:08.354Z,954.85
2016-09-08T02:51:08.352Z,954.83
2016-09-08T02:52:08.344Z,954.79
2016-09-08T02:53:08.343Z,954.84
2016-09-08T02:54:08.339Z,954.81
2016-09-08T02:55:08.332Z,954.81
2016-09-08T02:56:08.325Z,954.8
2016-09-08T02:57:08.319Z,954.8
2016-09-08T02:58:08.314Z,954.86
2016-09-08T02:59:08.308Z,954.83
2016-09-08T03:00:08.305Z,954.81
2016-09-08T03:01:08.298Z,954.82
2016-09-08T03:02:08.296Z,954.78
2016-09-08T03:03:08.299Z,954.78
2016-09-08T03:04:08.287Z,954.76
2016-09-08T03:05:08.280Z,954.78
2016-09-08T03:06:08.275Z,954.77
2016-09-08T03:07:08.271Z,954.76
2016-09-08T03:08:08.265Z,954.74
2016-09-08T03:09:08.262Z,954.7
2016-09-08T03:10:08.290Z,954.72
2016-09-08T03:11:08.253Z,954.73
2016-09-08T03:12:08.445Z,954.72
2016-09-08T03:13:08.236Z,954.69
2016-09-08T03:14:08.232Z,954.68
2016-09-08T03:15:08.226Z,954.69
2016-09-08T03:16:08.224Z,954.66
2016-09-08T03:17:08.223Z,954.66
2016-09-08T03:18:08.208Z,954.65
2016-09-08T03:19:08.208Z,954.67
2016-09-08T03:20:08.210Z,954.69
2016-09-08T03:21:08.198Z,954.69
2016-09-08T03:22:08.190Z,954.69
2016-09-08T03:23:08.186Z,954.68
2016-09-08T03:24:08.181Z,954.67
2016-09-08T03:25:08.177Z,954.63
2016-09-08T03:26:08.169Z,954.67
2016-09-08T03:27:08.163Z,954.58
2016-09-08T03:28:08.164Z,954.65
2016-09-08T03:29:08.155Z,954.62
2016-09-08T03:30:08.149Z,954.64
2016-09-08T03:31:08.141Z,954.64
2016-09-08T03:32:08.139Z,954.61
2016-09-08T03:33:08.132Z,954.58
2016-09-08T03:34:08.129Z,954.62
2016-09-08T03:35:08.123Z,954.62
2016-09-08T03:36:08.124Z,954.63
2016-09-08T03:37:08.112Z,954.62
2016-09-08T03:38:08.107Z,954.59
2016-09-08T03:39:08.101Z,954.58
2016-09-08T03:40:08.099Z,954.6
2016-09-08T03:41:08.093Z,954.57
2016-09-08T03:42:08.087Z,954.6
2016-09-08T03:43:08.083Z,954.59
2016-09-08T03:44:08.081Z,954.59
2016-09-08T03:45:08.070Z,954.59
2016-09-08T03:46:08.063Z,954.58
2016-09-08T03:47:08.059Z,954.61
2016-09-08T03:48:08.057Z,954.6
2016-09-08T03:49:08.049Z,954.58
2016-09-08T03:50:08.045Z,954.55
2016-09-08T03:51:08.044Z,954.59
2016-09-08T03:52:08.042Z,954.55
2016-09-08T03:53:08.033Z,954.54
2016-09-08T03:54:08.024Z,954.57
2016-09-08T03:55:08.019Z,954.57
2016-09-08T03:56:08.012Z,954.57
2016-09-08T03:57:08.006Z,954.6
2016-09-08T03:58:08.001Z,954.57
2016-09-08T03:59:07.998Z,954.56
2016-09-08T04:00:07.993Z,954.58
2016-09-08T04:01:07.989Z,954.54
2016-09-08T04:02:07.983Z,954.56
2016-09-08T04:03:07.983Z,954.55
2016-09-08T04:04:07.979Z,954.52
2016-09-08T04:05:07.968Z,954.54
2016-09-08T04:06:07.963Z,954.44
2016-09-08T04:07:07.954Z,954.47
2016-09-08T04:08:07.952Z,954.49
2016-09-08T04:09:07.947Z,954.47
2016-09-08T04:10:07.941Z,954.45
2016-09-08T04:11:07.935Z,954.46
2016-09-08T04:12:07.930Z,954.46
2016-09-08T04:13:07.928Z,954.45
2016-09-08T04:14:07.920Z,954.44
2016-09-08T04:15:07.915Z,954.4
2016-09-08T04:16:07.909Z,954.41
2016-09-08T04:17:07.907Z,954.4
2016-09-08T04:18:07.904Z,954.35
2016-09-08T04:19:07.894Z,954.37
2016-09-08T04:20:07.887Z,954.37
2016-09-08T04:21:07.888Z,954.38
2016-09-08T04:22:07.878Z,954.38
2016-09-08T04:23:07.896Z,954.36
2016-09-08T04:24:07.873Z,954.36
2016-09-08T04:25:07.864Z,954.42
2016-09-08T04:26:07.859Z,954.4
2016-09-08T04:27:07.850Z,954.35
2016-09-08T04:28:07.846Z,954.34
2016-09-08T04:29:07.842Z,954.3
2016-09-08T04:30:07.837Z,954.34
2016-09-08T04:31:07.844Z,954.34
2016-09-08T04:32:07.826Z,954.37
2016-09-08T04:33:07.824Z,954.33
2016-09-08T04:34:07.813Z,954.32
2016-09-08T04:35:07.813Z,954.32
2016-09-08T04:36:07.811Z,954.33
2016-09-08T04:37:07.799Z,954.31
2016-09-08T04:38:07.796Z,954.36
2016-09-08T04:39:07.790Z,954.31
2016-09-08T04:40:07.791Z,954.31
2016-09-08T04:41:07.781Z,954.36
2016-09-08T04:42:07.777Z,954.32
2016-09-08T04:43:07.771Z,954.29
2016-09-08T04:44:07.767Z,954.35
2016-09-08T04:45:07.759Z,954.31
2016-09-08T04:46:07.755Z,954.28
2016-09-08T04:47:07.750Z,954.33
2016-09-08T04:48:07.746Z,954.3
2016-09-08T04:49:07.740Z,954.31
2016-09-08T04:50:07.736Z,954.34
2016-09-08T04:51:07.726Z,954.3
2016-09-08T04:52:07.723Z,954.33
2016-09-08T04:53:07.717Z,954.32
2016-09-08T04:54:07.711Z,954.36
2016-09-08T04:55:07.709Z,954.34
2016-09-08T04:56:07.703Z,954.31
2016-09-08T04:57:07.699Z,954.36
2016-09-08T04:58:07.701Z,954.32
2016-09-08T04:59:07.688Z,954.38
2016-09-08T05:00:07.683Z,954.37
2016-09-08T05:01:07.683Z,954.38
2016-09-08T05:02:07.671Z,954.35
2016-09-08T05:03:07.677Z,954.32
2016-09-08T05:04:07.663Z,954.27
2016-09-08T05:05:07.656Z,954.26
2016-09-08T05:06:07.658Z,954.29
2016-09-08T05:07:07.646Z,954.26
2016-09-08T05:08:07.647Z,954.27
2016-09-08T05:09:07.640Z,954.28
2016-09-08T05:10:07.632Z,954.24
2016-09-08T05:11:07.630Z,954.23
2016-09-08T05:12:07.622Z,954.27
2016-09-08T05:13:07.626Z,954.34
2016-09-08T05:14:07.611Z,954.33
2016-09-08T05:15:07.617Z,954.28
2016-09-08T05:16:07.604Z,954.32
2016-09-08T05:17:07.597Z,954.28
2016-09-08T05:18:07.594Z,954.27
2016-09-08T05:19:07.588Z,954.31
2016-09-08T05:20:07.585Z,954.32
2016-09-08T05:21:07.580Z,954.32
2016-09-08T05:22:07.573Z,954.28
2016-09-08T05:23:07.569Z,954.32
2016-09-08T05:24:07.565Z,954.29
2016-09-08T05:25:07.558Z,954.23
2016-09-08T05:26:07.558Z,954.28
2016-09-08T05:27:07.554Z,954.27
2016-09-08T05:28:07.546Z,954.22
2016-09-08T05:29:07.541Z,954.22
2016-09-08T05:30:07.536Z,954.24
2016-09-08T05:31:07.531Z,954.21
2016-09-08T05:32:07.528Z,954.23
2016-09-08T05:33:07.521Z,954.23
2016-09-08T05:34:07.516Z,954.22
2016-09-08T05:35:07.526Z,954.21
2016-09-08T05:36:07.507Z,954.21
2016-09-08T05:37:07.505Z,954.23
2016-09-08T05:38:07.499Z,954.19
2016-09-08T05:39:07.495Z,954.2
2016-09-08T05:40:07.492Z,954.19
2016-09-08T05:41:07.496Z,954.18
2016-09-08T05:42:07.483Z,954.17
2016-09-08T05:43:07.477Z,954.19
2016-09-08T05:44:07.476Z,954.18
2016-09-08T05:45:07.466Z,954.14
2016-09-08T05:46:07.470Z,954.15
2016-09-08T05:47:07.459Z,954.15
2016-09-08T05:48:07.454Z,954.13
2016-09-08T05:49:07.449Z,954.12
2016-09-08T05:50:07.447Z,954.1
2016-09-08T05:51:07.442Z,954.08
2016-09-08T05:52:07.435Z,954.08
2016-09-08T05:53:07.435Z,954.1
2016-09-08T05:54:07.427Z,954.07
2016-09-08T05:55:07.421Z,954.1
2016-09-08T05:56:07.418Z,954.1
2016-09-08T05:57:07.416Z,954.09
2016-09-08T05:58:07.413Z,954.07
2016-09-08T05:59:07.410Z,954.04
2016-09-08T06:00:07.402Z,954.05
2016-09-08T06:01:07.405Z,954.05
2016-09-08T06:02:07.395Z,954.02
2016-09-08T06:03:07.387Z,954.03
2016-09-08T06:04:07.383Z,954
2016-09-08T06:05:07.378Z,954.01
2016-09-08T06:06:07.380Z,953.99
2016-09-08T06:07:07.376Z,953.96
2016-09-08T06:08:07.370Z,953.97
2016-09-08T06:09:07.364Z,953.94
2016-09-08T06:10:07.360Z,953.97
2016-09-08T06:11:07.358Z,953.98
2016-09-08T06:12:07.351Z,953.97
2016-09-08T06:13:07.348Z,953.92
2016-09-08T06:14:07.343Z,953.96
2016-09-08T06:15:07.340Z,953.94
2016-09-08T06:16:07.334Z,953.94
2016-09-08T06:17:07.332Z,953.95
2016-09-08T06:18:07.326Z,953.91
2016-09-08T06:19:07.324Z,953.96
2016-09-08T06:20:07.319Z,953.92
2016-09-08T06:21:07.315Z,953.89
2016-09-08T06:22:07.313Z,953.92
2016-09-08T06:23:07.308Z,953.88
2016-09-08T06:24:07.307Z,953.91
2016-09-08T06:25:07.306Z,953.89
2016-09-08T06:26:07.293Z,953.92
2016-09-08T06:27:07.295Z,953.88
2016-09-08T06:28:07.287Z,953.9
2016-09-08T06:29:07.285Z,953.81
2016-09-08T06:30:07.283Z,953.85
2016-09-08T06:31:07.283Z,953.86
2016-09-08T06:32:07.272Z,953.8
2016-09-08T06:33:07.269Z,953.8
2016-09-08T06:34:07.266Z,953.8
2016-09-08T06:35:07.261Z,953.77
2016-09-08T06:36:07.257Z,953.77
2016-09-08T06:37:07.254Z,953.74
2016-09-08T06:38:07.249Z,953.75
2016-09-08T06:39:07.245Z,953.73
2016-09-08T06:40:07.252Z,953.72
2016-09-08T06:41:07.240Z,953.75
2016-09-08T06:42:07.249Z,953.71
2016-09-08T06:43:07.234Z,953.73
2016-09-08T06:44:07.228Z,953.71
2016-09-08T06:45:07.227Z,953.7
2016-09-08T06:46:07.223Z,953.66
2016-09-08T06:47:07.217Z,953.68
2016-09-08T06:48:07.213Z,953.63
2016-09-08T06:49:07.213Z,953.7
2016-09-08T06:50:07.211Z,953.57
2016-09-08T06:51:07.203Z,953.63
2016-09-08T06:52:07.200Z,953.58
2016-09-08T06:53:07.197Z,953.57
2016-09-08T06:54:07.247Z,953.6
2016-09-08T06:55:07.189Z,953.55
2016-09-08T06:56:07.188Z,953.58
2016-09-08T06:57:07.183Z,953.59
2016-09-08T06:58:07.181Z,953.57
2016-09-08T06:59:07.175Z,953.57
2016-09-08T07:00:07.173Z,953.53
2016-09-08T07:01:07.175Z,953.6
2016-09-08T07:02:07.165Z,953.59
2016-09-08T07:03:07.163Z,953.64
2016-09-08T07:04:07.161Z,953.66
2016-09-08T07:05:07.158Z,953.6
2016-09-08T07:06:07.169Z,953.61
2016-09-08T07:07:07.151Z,953.63
2016-09-08T07:08:07.153Z,953.64
2016-09-08T07:09:07.147Z,953.68
2016-09-08T07:10:07.154Z,953.66
2016-09-08T07:11:07.141Z,953.66
2016-09-08T07:12:07.138Z,953.68
2016-09-08T07:13:07.133Z,953.68
2016-09-08T07:14:07.135Z,953.7
2016-09-08T07:15:07.129Z,953.7
2016-09-08T07:16:07.127Z,953.7
2016-09-08T07:17:07.122Z,953.68
2016-09-08T07:18:07.121Z,953.73
2016-09-08T07:19:07.119Z,953.74
2016-09-08T07:20:07.121Z,953.78
2016-09-08T07:21:07.119Z,953.76
2016-09-08T07:22:07.115Z,953.77
2016-09-08T07:23:07.114Z,953.72
2016-09-08T07:24:07.108Z,953.74
2016-09-08T07:25:07.106Z,953.72
2016-09-08T07:26:07.103Z,953.72
2016-09-08T07:27:07.103Z,953.74
2016-09-08T07:28:07.100Z,953.76
2016-09-08T07:29:07.098Z,953.74
2016-09-08T07:30:07.102Z,953.71
2016-09-08T07:31:07.097Z,953.71
2016-09-08T07:32:07.098Z,953.74
2016-09-08T07:33:07.091Z,953.68
2016-09-08T07:34:07.122Z,953.74
2016-09-08T07:35:07.087Z,953.72
2016-09-08T07:36:07.087Z,953.73
2016-09-08T07:37:07.084Z,953.72
2016-09-08T07:38:07.083Z,953.77
2016-09-08T07:39:07.081Z,953.75
2016-09-08T07:40:07.079Z,953.74
2016-09-08T07:41:07.076Z,953.73
2016-09-08T07:42:07.076Z,953.73
2016-09-08T07:43:07.074Z,953.73
2016-09-08T07:44:07.075Z,953.72
2016-09-08T07:45:07.072Z,953.78
2016-09-08T07:46:07.068Z,953.78
2016-09-08T07:47:07.066Z,953.77
2016-09-08T07:48:07.064Z,953.78
2016-09-08T07:49:07.064Z,953.78
2016-09-08T07:50:07.063Z,953.8
2016-09-08T07:51:07.062Z,953.77
2016-09-08T07:52:07.061Z,953.74
2016-09-08T07:53:07.058Z,953.77
2016-09-08T07:54:07.060Z,953.75
2016-09-08T07:55:07.058Z,953.72
2016-09-08T07:56:07.059Z,953.74
2016-09-08T07:57:07.056Z,953.79
2016-09-08T07:58:07.054Z,953.73
2016-09-08T07:59:07.052Z,953.77
2016-09-08T08:00:07.051Z,953.7
2016-09-08T08:01:07.050Z,953.76
2016-09-08T08:02:07.056Z,953.73
2016-09-08T08:03:07.049Z,953.72
2016-09-08T08:04:07.048Z,953.74
2016-09-08T08:05:07.047Z,953.74
2016-09-08T08:06:07.047Z,953.71
2016-09-08T08:07:07.044Z,953.69
2016-09-08T08:08:07.046Z,953.72
2016-09-08T08:09:07.047Z,953.7
2016-09-08T08:10:07.046Z,953.69
2016-09-08T08:11:07.045Z,953.69
2016-09-08T08:12:07.043Z,953.7
2016-09-08T08:13:07.039Z,953.66
2016-09-08T08:14:07.041Z,953.61
2016-09-08T08:15:07.039Z,953.6
2016-09-08T08:16:07.049Z,953.61
2016-09-08T08:17:07.041Z,953.68
2016-09-08T08:18:07.038Z,953.65
2016-09-08T08:19:07.037Z,953.67
2016-09-08T08:20:07.044Z,953.67
2016-09-08T08:21:07.039Z,953.66
2016-09-08T08:22:07.045Z,953.63
2016-09-08T08:23:07.048Z,953.63
2016-09-08T08:24:07.037Z,953.63
2016-09-08T08:25:07.034Z,953.63
2016-09-08T08:26:07.034Z,953.57
2016-09-08T08:27:07.038Z,953.55
2016-09-08T08:28:07.032Z,953.56
2016-09-08T08:29:07.036Z,953.56
2016-09-08T08:30:07.032Z,953.53
2016-09-08T08:31:07.036Z,953.5
2016-09-08T08:32:07.034Z,953.5
2016-09-08T08:33:07.033Z,953.51
2016-09-08T08:34:07.034Z,953.53
2016-09-08T08:35:07.043Z,953.59
2016-09-08T08:36:07.040Z,953.55
2016-09-08T08:37:07.037Z,953.53
2016-09-08T08:38:07.034Z,953.58
2016-09-08T08:39:07.038Z,953.55
2016-09-08T08:40:07.033Z,953.52
2016-09-08T08:41:07.031Z,953.55
2016-09-08T08:42:07.034Z,953.56
2016-09-08T08:43:07.033Z,953.51
2016-09-08T08:44:07.032Z,953.6
2016-09-08T08:45:07.031Z,953.55
2016-09-08T08:46:07.031Z,953.56
2016-09-08T08:47:07.033Z,953.52
2016-09-08T08:48:07.035Z,953.47
2016-09-08T08:49:07.035Z,953.5
2016-09-08T08:50:07.036Z,953.51
2016-09-08T08:51:07.036Z,953.45
2016-09-08T08:52:07.093Z,953.46
2016-09-08T08:53:07.035Z,953.44
2016-09-08T08:54:07.040Z,953.45
2016-09-08T08:55:07.033Z,953.39
2016-09-08T08:56:07.032Z,953.43
2016-09-08T08:57:07.034Z,953.4
2016-09-08T08:58:07.034Z,953.4
2016-09-08T08:59:07.045Z,953.36
2016-09-08T09:00:07.040Z,953.36
2016-09-08T09:01:07.043Z,953.43
2016-09-08T09:02:07.038Z,953.37
2016-09-08T09:03:07.039Z,953.39
2016-09-08T09:04:07.041Z,953.38
2016-09-08T09:05:07.039Z,953.33
2016-09-08T09:06:07.040Z,953.34
2016-09-08T09:07:07.043Z,953.37
2016-09-08T09:08:07.037Z,953.34
2016-09-08T09:09:07.039Z,953.32
2016-09-08T09:10:07.039Z,953.36
2016-09-08T09:11:07.044Z,953.27
2016-09-08T09:12:07.040Z,953.26
2016-09-08T09:13:07.041Z,953.32
2016-09-08T09:14:07.041Z,953.24
2016-09-08T09:15:07.043Z,953.27
2016-09-08T09:16:07.045Z,953.22
2016-09-08T09:17:07.043Z,953.24
2016-09-08T09:18:07.048Z,953.27
2016-09-08T09:19:07.046Z,953.21
2016-09-08T09:20:07.044Z,953.19
2016-09-08T09:21:07.045Z,953.19
2016-09-08T09:22:07.042Z,953.19
2016-09-08T09:23:07.055Z,953.2
2016-09-08T09:24:07.048Z,953.17
2016-09-08T09:25:07.049Z,953.18
2016-09-08T09:26:07.050Z,953.16
2016-09-08T09:27:07.051Z,953.16
2016-09-08T09:28:07.047Z,953.14
2016-09-08T09:29:07.048Z,953.18
2016-09-08T09:30:07.096Z,953.18
2016-09-08T09:31:07.052Z,953.14
2016-09-08T09:32:07.052Z,953.11
2016-09-08T09:33:07.051Z,953.14
2016-09-08T09:34:07.056Z,953.15
2016-09-08T09:35:07.057Z,953.1
2016-09-08T09:36:07.059Z,953.15
2016-09-08T09:37:07.056Z,953.17
2016-09-08T09:38:07.058Z,953.15
2016-09-08T09:39:07.068Z,953.11
2016-09-08T09:40:07.058Z,953.14
2016-09-08T09:41:07.060Z,953.12
2016-09-08T09:42:07.058Z,953.11
2016-09-08T09:43:07.062Z,953.11
2016-09-08T09:44:07.066Z,953.14
2016-09-08T09:45:07.064Z,953.17
2016-09-08T09:46:07.065Z,953.17
2016-09-08T09:47:07.064Z,953.08
2016-09-08T09:48:07.063Z,953.16
2016-09-08T09:49:07.070Z,953.17
2016-09-08T09:50:07.066Z,953.11
2016-09-08T09:51:07.066Z,953.2
2016-09-08T09:52:07.069Z,953.15
2016-09-08T09:53:07.070Z,953.19
2016-09-08T09:54:07.076Z,953.16
2016-09-08T09:55:07.073Z,953.09
2016-09-08T09:56:07.075Z,953.13
2016-09-08T09:57:07.076Z,953.13
2016-09-08T09:58:07.075Z,953.14
2016-09-08T09:59:07.077Z,953.11
2016-09-08T10:00:07.078Z,953.06
2016-09-08T10:01:07.080Z,953.09
2016-09-08T10:02:07.079Z,953.07
2016-09-08T10:03:07.083Z,953.04
2016-09-08T10:04:07.081Z,953.06
2016-09-08T10:05:07.086Z,953.1
2016-09-08T10:06:07.089Z,953.06
2016-09-08T10:07:07.091Z,953.07
2016-09-08T10:08:07.087Z,953.09
2016-09-08T10:09:07.091Z,953.01
2016-09-08T10:10:07.090Z,953.05
2016-09-08T10:11:07.094Z,953.03
2016-09-08T10:12:07.093Z,952.97
2016-09-08T10:13:07.127Z,953.04
2016-09-08T10:14:07.100Z,952.98
2016-09-08T10:15:07.102Z,953.05
2016-09-08T10:16:07.100Z,953
2016-09-08T10:17:07.101Z,953.01
2016-09-08T10:18:07.105Z,953.01
2016-09-08T10:19:07.105Z,952.98
2016-09-08T10:20:07.102Z,952.97
2016-09-08T10:21:07.107Z,952.99
2016-09-08T10:22:07.109Z,953
2016-09-08T10:23:07.111Z,953.01
2016-09-08T10:24:07.109Z,952.99
2016-09-08T10:25:07.114Z,952.99
2016-09-08T10:26:07.110Z,952.88
2016-09-08T10:27:07.115Z,952.97
2016-09-08T10:28:07.115Z,952.95
2016-09-08T10:29:07.119Z,953
2016-09-08T10:30:07.123Z,952.98
2016-09-08T10:31:07.129Z,952.97
2016-09-08T10:32:07.127Z,952.96
2016-09-08T10:33:07.149Z,952.96
2016-09-08T10:34:07.125Z,952.92
2016-09-08T10:35:07.133Z,952.93
2016-09-08T10:36:07.128Z,952.95
2016-09-08T10:37:07.131Z,952.89
2016-09-08T10:38:07.146Z,952.95
2016-09-08T10:39:07.137Z,952.89
2016-09-08T10:40:07.137Z,952.9
2016-09-08T10:41:07.143Z,952.88
2016-09-08T10:42:07.137Z,952.86
2016-09-08T10:43:07.144Z,952.81
2016-09-08T10:44:07.151Z,952.77
2016-09-08T10:45:07.142Z,952.75
2016-09-08T10:46:07.147Z,952.74
2016-09-08T10:47:07.153Z,952.73
2016-09-08T10:48:07.148Z,952.74
2016-09-08T10:49:07.151Z,952.74
2016-09-08T10:50:07.155Z,952.78
2016-09-08T10:51:07.161Z,952.77
2016-09-08T10:52:07.166Z,952.75
2016-09-08T10:53:07.162Z,952.77
2016-09-08T10:54:07.166Z,952.73
2016-09-08T10:55:07.162Z,952.78
2016-09-08T10:56:07.163Z,952.77
2016-09-08T10:57:07.170Z,952.76
2016-09-08T10:58:07.168Z,952.78
2016-09-08T10:59:07.172Z,952.78
2016-09-08T11:00:07.175Z,952.76
2016-09-08T11:01:07.173Z,952.77
2016-09-08T11:02:07.176Z,952.82
2016-09-08T11:03:07.183Z,952.83
2016-09-08T11:04:07.182Z,952.82
2016-09-08T11:05:07.186Z,952.81
2016-09-08T11:06:07.184Z,952.81
2016-09-08T11:07:07.187Z,952.84
2016-09-08T11:08:07.191Z,952.84
2016-09-08T11:09:07.190Z,952.88
2016-09-08T11:10:07.191Z,952.91
2016-09-08T11:11:07.198Z,952.85
2016-09-08T11:12:07.199Z,952.92
2016-09-08T11:13:07.203Z,952.9
2016-09-08T11:14:07.198Z,952.9
2016-09-08T11:15:07.202Z,952.83
2016-09-08T11:16:07.204Z,952.9
2016-09-08T11:17:07.208Z,952.87
2016-09-08T11:18:07.210Z,952.91
2016-09-08T11:19:07.217Z,952.88
2016-09-08T11:20:07.214Z,952.84
2016-09-08T11:21:07.217Z,952.91
2016-09-08T11:22:07.220Z,952.87
2016-09-08T11:23:07.219Z,952.83
2016-09-08T11:24:07.224Z,952.88
2016-09-08T11:25:07.226Z,952.85
2016-09-08T11:26:07.236Z,952.84
2016-09-08T11:27:07.228Z,952.87
2016-09-08T11:28:07.231Z,952.86
2016-09-08T11:29:07.234Z,952.88
2016-09-08T11:30:07.234Z,952.85
2016-09-08T11:31:07.238Z,952.85
2016-09-08T11:32:07.243Z,952.83
2016-09-08T11:33:07.245Z,952.84
2016-09-08T11:34:07.246Z,952.9
2016-09-08T11:35:07.250Z,952.88
2016-09-08T11:36:07.247Z,952.93
2016-09-08T11:37:07.250Z,952.93
2016-09-08T11:38:07.254Z,952.92
2016-09-08T11:39:07.263Z,952.93
2016-09-08T11:40:07.260Z,952.89
2016-09-08T11:41:07.266Z,952.91
2016-09-08T11:42:07.267Z,952.9
2016-09-08T11:43:07.267Z,952.92
2016-09-08T11:44:07.269Z,952.94
2016-09-08T11:45:07.271Z,952.93
2016-09-08T11:46:07.276Z,952.92
2016-09-08T11:47:07.279Z,952.95
2016-09-08T11:48:07.299Z,952.95
2016-09-08T11:49:07.276Z,952.86
2016-09-08T11:50:07.282Z,952.87
2016-09-08T11:51:07.282Z,952.9
2016-09-08T11:52:07.291Z,952.87
2016-09-08T11:53:07.291Z,952.87
2016-09-08T11:54:07.295Z,952.9
2016-09-08T11:55:07.290Z,952.87
2016-09-08T11:56:07.296Z,952.88
2016-09-08T11:57:07.298Z,952.86
2016-09-08T11:58:07.312Z,952.87
2016-09-08T11:59:07.307Z,952.86
2016-09-08T12:00:07.308Z,952.84
2016-09-08T12:01:07.306Z,952.87
2016-09-08T12:02:07.308Z,952.9
2016-09-08T12:03:07.310Z,952.87
2016-09-08T12:04:07.316Z,952.84
2016-09-08T12:05:07.321Z,952.84
2016-09-08T12:06:07.320Z,952.81
2016-09-08T12:07:07.322Z,952.77
2016-09-08T12:08:07.324Z,952.78
2016-09-08T12:09:07.330Z,952.86
2016-09-08T12:10:07.325Z,952.77
2016-09-08T12:11:07.330Z,952.75
2016-09-08T12:12:07.331Z,952.71
2016-09-08T12:13:07.334Z,952.7
2016-09-08T12:14:07.338Z,952.76
2016-09-08T12:15:07.339Z,952.76
2016-09-08T12:16:07.344Z,952.76
2016-09-08T12:17:07.348Z,952.82
2016-09-08T12:18:07.355Z,952.75
2016-09-08T12:19:07.350Z,952.8
2016-09-08T12:20:07.354Z,952.79
2016-09-08T12:21:07.360Z,952.79
2016-09-08T12:22:07.359Z,952.78
2016-09-08T12:23:07.359Z,952.76
2016-09-08T12:24:07.362Z,952.8
2016-09-08T12:25:07.366Z,952.76
2016-09-08T12:26:07.366Z,952.8
2016-09-08T12:27:07.370Z,952.78
2016-09-08T12:28:07.369Z,952.76
2016-09-08T12:29:07.378Z,952.78
2016-09-08T12:30:07.375Z,952.72
2016-09-08T12:31:07.380Z,952.77